Other Surface Observations
Issued by NWS Great Falls, MT

Home | Current Version | Previous Version | Text Only | Print | Product List | Glossary On
Versions: 1 2 3 4 5 6 7 8 9 10 11 12 13 14 15 16 17 18 19 20 21 22 23 24 25 26 27 28 29 30 31 32 33 34 35 36 37 38 39 40 41 42 43 44 45 46 47 48 49 50
000
SXUS55 KTFX 191014
OSOTFX

AREA AWOS OBSERVATIONS
NATIONAL WEATHER SERVICE GREAT FALLS MT
0314 AM MST Mon Feb 19 2018

METAR K3U3 191013Z AUTO 10004KT M22/M26 A2980
METAR KS71 191013Z AUTO 30000KT 10SM M23/M26 A3017
METAR K38S 191014Z AUTO 35010KT 10SM M21/M26 A2984
METAR K6S5 191014Z AUTO 33008 6SM M15/M21 A2985
METAR K1S3 191013Z AUTO 02003KT M17/M19 A3005
METAR KPWD 191014Z AUTO 34000KT 10SM M19/M22 A3011
METAR KPO1 191013Z AUTO 33000KT  10SM M25/M28 A3017



USA.gov is the U.S. government's official web portal to all federal, state and local government web resources and services.